Marilandia, Brazil
Current Conditions -  °F | °C
As of 4:00 PM on Friday 24 Oct 2014 (Local Time) from SBVT Reporting Station
Few Clouds Few Clouds  
Wind Chill: 79°   Ceiling: Unl
Heat Index: 80°   Visibility: 6mi
Dew Point: 59°   Wind: 13mph
Humidity: 51%   Direction: 60°ENE
Pressure: 29.97"   Gusts: NA
Location:  19.42°S, 40.52°W
Report Text: SBVT 241800Z 06011KT 9999 FEW040 26/15 Q1015
Loading
Personal Weather Stations






























Interactive Weather Map
Tropical Storm Tracking
New forecast layout! Learn more

10-Day Weather Forecast

Advertisements
Track Severe Weather on mobile